createdAt,value
2019-01-16T05:03:47.773Z,98.956299
2019-01-16T05:07:15.636Z,98.64502
2019-01-16T05:10:43.516Z,98.748779
2019-01-16T05:14:12.401Z,98.54126
2019-01-16T05:17:40.301Z,98.22998
2019-01-16T05:21:08.188Z,98.126221
2019-01-16T05:24:36.078Z,98.126221
2019-01-16T05:28:04.001Z,98.126221
2019-01-16T05:31:32.898Z,98.126221
2019-01-16T05:35:01.801Z,98.126221
2019-01-16T05:38:29.654Z,98.126221
2019-01-16T05:41:57.567Z,97.924805
2019-01-16T05:45:25.816Z,97.717285
2019-01-16T05:48:54.198Z,98.022461
2019-01-16T05:52:22.090Z,97.924805
2019-01-16T05:55:49.971Z,97.924805
2019-01-16T05:59:17.857Z,97.717285
2019-01-16T06:02:45.747Z,97.406006
2019-01-16T06:06:13.646Z,97.509766
2019-01-16T06:09:41.512Z,97.613525
2019-01-16T06:13:09.408Z,97.406006
2019-01-16T06:16:37.305Z,97.094727
2019-01-16T06:20:05.177Z,96.887207
2019-01-16T06:23:34.051Z,96.582031
2019-01-16T06:27:01.942Z,96.789551
2019-01-16T06:30:29.809Z,96.887207
2019-01-16T06:33:57.698Z,96.582031
2019-01-16T06:37:25.673Z,96.374512
2019-01-16T06:40:53.548Z,95.812988
2019-01-16T06:44:21.431Z,96.374512
2019-01-16T06:47:49.321Z,96.063232
2019-01-16T06:51:17.194Z,96.063232
2019-01-16T06:54:45.079Z,96.478271
2019-01-16T06:58:12.963Z,96.166992
2019-01-16T07:01:40.835Z,96.270752
2019-01-16T07:05:08.727Z,95.855713
2019-01-16T07:08:36.631Z,95.758057
2019-01-16T07:12:04.502Z,95.404053
2019-01-16T07:15:32.398Z,95.709229
2019-01-16T07:19:00.287Z,95.855713
2019-01-16T07:22:28.163Z,96.063232
2019-01-16T07:25:56.050Z,95.959473
2019-01-16T07:29:23.949Z,96.063232
2019-01-16T07:32:51.823Z,96.063232
2019-01-16T07:36:19.716Z,95.812988
2019-01-16T07:39:47.611Z,95.812988
2019-01-16T07:43:15.483Z,95.501709
2019-01-16T07:46:43.379Z,95.501709
2019-01-16T07:50:17.101Z,95.092773
2019-01-16T07:53:43.100Z,95.092773
2019-01-16T07:57:11.000Z,95.196533
2019-01-16T08:00:38.874Z,95.196533
2019-01-16T08:04:06.749Z,94.677734
2019-01-16T08:07:34.643Z,94.781494
2019-01-16T08:11:02.532Z,94.165039
2019-01-16T08:14:30.406Z,94.122314
2019-01-16T08:17:58.307Z,93.914795
2019-01-16T08:21:27.198Z,94.226074
2019-01-16T08:24:55.074Z,94.122314
2019-01-16T08:28:22.964Z,94.018555
2019-01-16T08:31:50.868Z,93.603516
2019-01-16T08:35:18.735Z,93.707275
2019-01-16T08:38:46.632Z,93.603516
2019-01-16T08:42:14.507Z,92.883301
2019-01-16T08:45:42.402Z,92.779541
2019-01-16T08:49:10.308Z,93.499756
2019-01-16T08:52:38.182Z,92.675781
2019-01-16T08:56:06.079Z,93.09082
2019-01-16T08:59:33.968Z,93.395996
2019-01-16T09:03:01.839Z,93.499756
2019-01-16T09:06:30.724Z,93.19458
2019-01-16T09:09:58.611Z,93.29834
2019-01-16T09:13:26.499Z,93.09082
2019-01-16T09:16:54.410Z,93.19458
2019-01-16T09:20:22.301Z,93.29834
2019-01-16T09:23:50.178Z,93.707275
2019-01-16T09:27:18.069Z,94.061279
2019-01-16T09:30:45.958Z,94.165039
2019-01-16T09:34:13.830Z,94.061279
2019-01-16T09:37:41.728Z,94.573975
2019-01-16T09:41:09.614Z,94.165039
2019-01-16T09:44:37.494Z,94.573975
2019-01-16T09:48:05.393Z,94.677734
2019-01-16T09:51:33.288Z,94.677734
2019-01-16T09:55:01.160Z,94.885254
2019-01-16T09:58:29.053Z,95.501709
2019-01-16T10:01:56.943Z,95.501709
2019-01-16T10:05:24.818Z,95.605469
2019-01-16T10:08:52.707Z,95.709229
2019-01-16T10:12:20.591Z,95.709229
2019-01-16T10:15:48.480Z,95.605469
2019-01-16T10:19:16.360Z,95.605469
2019-01-16T10:22:44.256Z,95.501709
2019-01-16T10:26:12.152Z,95.196533
2019-01-16T10:29:41.026Z,95.300293
2019-01-16T10:33:08.925Z,94.842529
2019-01-16T10:36:36.813Z,94.946289
2019-01-16T10:40:04.692Z,94.842529
2019-01-16T10:43:32.581Z,94.946289
2019-01-16T10:47:00.468Z,94.53125
2019-01-16T10:50:29.328Z,94.488525
2019-01-16T10:53:58.210Z,94.384766
2019-01-16T10:57:26.948Z,94.07959
2019-01-16T11:00:53.976Z,94.696045
2019-01-16T11:04:21.864Z,94.177246
2019-01-16T11:07:50.749Z,94.177246
2019-01-16T11:11:18.625Z,94.07959
2019-01-16T11:14:46.507Z,94.281006
2019-01-16T11:18:15.430Z,94.281006
2019-01-16T11:21:43.257Z,94.384766
2019-01-16T11:25:11.175Z,94.177246
2019-01-16T11:28:39.064Z,94.696045
2019-01-16T11:32:06.952Z,94.696045
2019-01-16T11:35:34.818Z,95.10498
2019-01-16T11:39:02.710Z,95.20874
2019-01-16T11:42:30.610Z,95.3125
2019-01-16T11:45:58.478Z,95.001221
2019-01-16T11:49:26.371Z,95.10498
2019-01-16T11:52:54.252Z,95.20874
2019-01-16T11:56:22.121Z,95.10498
2019-01-16T11:59:50.996Z,95.001221
2019-01-16T12:03:18.998Z,94.903564
2019-01-16T12:06:46.867Z,95.10498
2019-01-16T12:10:14.755Z,95.52002
2019-01-16T12:13:42.748Z,95.727539
2019-01-16T12:17:10.616Z,95.770264
2019-01-16T12:20:38.507Z,95.727539
2019-01-16T12:24:06.391Z,95.727539
2019-01-16T12:27:34.256Z,95.727539
2019-01-16T12:31:02.153Z,95.928955
2019-01-16T12:34:30.040Z,96.282959
2019-01-16T12:37:58.901Z,96.179199
2019-01-16T12:41:27.795Z,96.386719
2019-01-16T12:44:55.694Z,96.179199
2019-01-16T12:48:23.580Z,96.594238
2019-01-16T12:51:51.476Z,96.801758
2019-01-16T12:55:19.404Z,97.009277
2019-01-16T12:58:47.284Z,96.594238
2019-01-16T13:02:15.152Z,96.282959
2019-01-16T13:05:43.051Z,96.386719
2019-01-16T13:09:10.974Z,95.562744
2019-01-16T13:12:38.851Z,95.355225
2019-01-16T13:16:06.738Z,95.050049
2019-01-16T13:19:34.641Z,94.946289
2019-01-16T13:23:02.511Z,94.946289
2019-01-16T13:26:30.398Z,94.842529
2019-01-16T13:29:59.289Z,94.63501
2019-01-16T13:33:27.159Z,94.842529
2019-01-16T13:36:55.057Z,94.842529
2019-01-16T13:40:23.894Z,95.355225
2019-01-16T13:43:52.434Z,96.282959
2019-01-16T13:47:19.668Z,96.905518
2019-01-16T13:50:48.585Z,97.210693
2019-01-16T13:54:16.484Z,97.418213
2019-01-16T13:57:44.379Z,98.083496
2019-01-16T14:01:13.245Z,98.394775
2019-01-16T14:04:41.160Z,98.596191
2019-01-16T14:08:09.047Z,98.699951
2019-01-16T14:11:36.923Z,98.907471
2019-01-16T14:15:05.801Z,99.32251
2019-01-16T14:18:33.702Z,99.780273
2019-01-16T14:22:01.654Z,99.993896
2019-01-16T14:25:29.743Z,99.993896
2019-01-16T14:28:57.636Z,99.993896
2019-01-16T14:32:25.507Z,99.993896
2019-01-16T14:35:53.381Z,99.993896
2019-01-16T14:39:21.277Z,99.993896
2019-01-16T14:42:49.163Z,99.993896
2019-01-16T14:46:17.037Z,99.993896
2019-01-16T14:49:44.925Z,99.993896
2019-01-16T14:53:13.783Z,99.993896
2019-01-16T14:56:41.664Z,99.987793
2019-01-16T15:00:09.544Z,99.676514
2019-01-16T15:03:37.430Z,99.468994
2019-01-16T15:07:05.302Z,99.21875
2019-01-16T15:10:33.197Z,99.32251
2019-01-16T15:14:01.087Z,99.523926
2019-01-16T15:17:28.950Z,99.780273
2019-01-16T15:20:56.826Z,99.884033
2019-01-16T15:24:24.742Z,99.780273
2019-01-16T15:27:52.654Z,99.676514
2019-01-16T15:31:21.622Z,99.572754
2019-01-16T15:34:49.509Z,99.42627
2019-01-16T15:38:17.396Z,99.627686
2019-01-16T15:41:45.258Z,99.884033
2019-01-16T15:45:13.142Z,99.780273
2019-01-16T15:48:41.034Z,99.780273
2019-01-16T15:52:13.034Z,99.884033
2019-01-16T15:55:40.754Z,99.993896
2019-01-16T15:59:08.637Z,99.993896
2019-01-16T16:02:36.509Z,99.993896
2019-01-16T16:06:06.378Z,99.993896
2019-01-16T16:09:34.266Z,99.993896
2019-01-16T16:13:02.139Z,99.884033
2019-01-16T16:16:30.021Z,99.468994
2019-01-16T16:19:57.902Z,99.261475
2019-01-16T16:23:25.770Z,99.01123
2019-01-16T16:26:53.659Z,99.01123
2019-01-16T16:30:21.547Z,99.060059
2019-01-16T16:33:49.418Z,99.060059
2019-01-16T16:37:17.297Z,98.956299
2019-01-16T16:40:45.196Z,98.852539
2019-01-16T16:44:13.067Z,98.64502
2019-01-16T16:47:40.956Z,98.64502
2019-01-16T16:51:08.842Z,98.64502
2019-01-16T16:54:36.731Z,98.4375
2019-01-16T16:58:04.602Z,98.33374
2019-01-16T17:01:32.494Z,98.22998
2019-01-16T17:05:00.378Z,98.4375
2019-01-16T17:08:28.246Z,98.022461
2019-01-16T17:11:56.158Z,98.022461
2019-01-16T17:15:24.046Z,97.717285
2019-01-16T17:18:52.905Z,97.717285
2019-01-16T17:22:20.794Z,97.613525
2019-01-16T17:25:49.703Z,97.717285
2019-01-16T17:29:17.576Z,97.406006
2019-01-16T17:32:45.467Z,96.990967
2019-01-16T17:36:14.340Z,96.478271
2019-01-16T17:39:43.200Z,96.063232
2019-01-16T17:43:11.092Z,95.959473
2019-01-16T17:46:38.979Z,95.550537
2019-01-16T17:50:06.858Z,95.343018
2019-01-16T17:53:34.740Z,95.031738
2019-01-16T17:57:02.627Z,95.135498
2019-01-16T18:00:30.501Z,94.622803
2019-01-16T18:03:58.402Z,94.415283
2019-01-16T18:07:26.287Z,94.000244
2019-01-16T18:10:54.154Z,93.792725
2019-01-16T18:14:23.033Z,93.585205
2019-01-16T18:17:51.919Z,93.792725
2019-01-16T18:21:19.791Z,94.311523
2019-01-16T18:24:47.684Z,94.720459
2019-01-16T18:28:17.547Z,95.343018
2019-01-16T18:31:45.439Z,95.758057
2019-01-16T18:35:13.331Z,95.446777
2019-01-16T18:38:41.237Z,95.074463
2019-01-16T18:42:09.139Z,94.873047
2019-01-16T18:45:37.010Z,94.769287
2019-01-16T18:49:05.900Z,95.281982
2019-01-16T18:52:33.806Z,95.281982
2019-01-16T18:56:01.701Z,95.800781
2019-01-16T18:59:29.603Z,95.593262
2019-01-16T19:02:57.486Z,95.178223
2019-01-16T19:06:25.359Z,94.769287
2019-01-16T19:09:53.276Z,95.074463
2019-01-16T19:13:21.180Z,94.873047
2019-01-16T19:16:49.052Z,94.354248
2019-01-16T19:20:16.954Z,94.354248
2019-01-16T19:23:44.866Z,93.981934
2019-01-16T19:27:12.760Z,94.085693
2019-01-16T19:30:40.661Z,94.189453
2019-01-16T19:34:08.552Z,94.500732
2019-01-16T19:37:36.420Z,94.915771
2019-01-16T19:41:04.319Z,95.019531
2019-01-16T19:44:33.205Z,94.812012
2019-01-16T19:48:01.129Z,95.019531
2019-01-16T19:51:29.033Z,95.019531
2019-01-16T19:54:59.058Z,94.812012
2019-01-16T19:58:26.993Z,94.604492
2019-01-16T20:01:54.936Z,94.604492
2019-01-16T20:05:22.859Z,94.396973
2019-01-16T20:08:51.733Z,94.500732
2019-01-16T20:12:19.657Z,93.676758
2019-01-16T20:15:47.644Z,93.572998
2019-01-16T20:19:15.571Z,93.780518
2019-01-16T20:22:43.487Z,93.981934
2019-01-16T20:26:11.428Z,93.823242
2019-01-16T20:29:39.410Z,94.128418
2019-01-16T20:33:07.372Z,94.647217
2019-01-16T20:36:35.319Z,94.232178
2019-01-16T20:40:03.231Z,94.439697
2019-01-16T20:43:31.208Z,94.335938
2019-01-16T20:46:59.095Z,94.543457
2019-01-16T20:50:26.994Z,94.750977
2019-01-16T20:53:54.874Z,95.52002
2019-01-16T20:57:22.770Z,95.831299
2019-01-16T21:00:50.668Z,96.551514
2019-01-16T21:04:18.568Z,97.277832
2019-01-16T21:07:46.517Z,97.320557
2019-01-16T21:11:14.586Z,97.735596
2019-01-16T21:14:42.624Z,98.254395
2019-01-16T21:18:10.506Z,98.55957
2019-01-16T21:21:38.400Z,98.76709
2019-01-16T21:25:06.436Z,98.974609
2019-01-16T21:28:37.276Z,99.023438
2019-01-16T21:32:05.175Z,99.432373
2019-01-16T21:35:33.047Z,99.639893
2019-01-16T21:39:01.934Z,99.743652
2019-01-16T21:42:29.822Z,99.743652
2019-01-16T21:45:57.716Z,99.536133
2019-01-16T21:49:25.599Z,99.743652
2019-01-16T21:52:53.483Z,99.688721
2019-01-16T21:56:21.379Z,99.79248
2019-01-16T21:59:49.274Z,99.89624
2019-01-16T22:03:17.147Z,99.584961
2019-01-16T22:06:45.034Z,99.481201
2019-01-16T22:10:12.919Z,99.584961
2019-01-16T22:13:40.793Z,99.89624
2019-01-16T22:17:08.691Z,99.89624
2019-01-16T22:20:36.575Z,99.79248
2019-01-16T22:24:04.445Z,99.89624
2019-01-16T22:27:32.351Z,99.79248
2019-01-16T22:31:00.239Z,99.731445
2019-01-16T22:34:28.112Z,99.731445
2019-01-16T22:37:55.999Z,99.731445
2019-01-16T22:41:23.906Z,99.835205
2019-01-16T22:44:51.777Z,99.835205
2019-01-16T22:48:20.656Z,99.835205
2019-01-16T22:51:48.548Z,99.835205
2019-01-16T22:55:16.532Z,99.731445
2019-01-16T22:58:44.460Z,99.835205
